International Virtual Aviation Organisation

Russian Federation and Kazakhstan MCD

 

Карточка аэропорта ULLI

Внимание!
Информация на этой странице в стадии наполнения.
Если вы не увидели какой-то информации, или заметили неточность - пожалуйста сообщите нам!
Спасибо!
Команда RU-STAFF
Название аэропортаПулково
Название аэропорта (англ.)Pulkovo
Превышение79 ft. (24.1 m.)
Координаты59°48.018', 30°15.75'
Высота перехода3500ft
Эшелон переходаQNH>=747mm:FL50; QNH<747=>720:FL60; QNH<720:FL70
Коды ответчика0701-0777, 5701-5727
Зона ОрВДСанкт-Петербург РПИ (ULLL)
Данные METARULLI 302100Z 28002MPS 0300 0250SE R28R/1000D FG BKN001 OVC020 07/06 Q1016 R28R/290050 NOSIG RMK QBB050 OBST OBSC
Проноз погоды (TAF)ULLI 301953Z 3021/3121 32003MPS 1200 BR MIFG BKN003 TEMPO 3021/3106 0300 FG VV001 BECMG 3106/3108 6000 NSW BKN011 TEMPO 3108/3115 36003MPS -SHRA BKN016CB FM311500 03003MPS 3100 BR MIFG BKN004 BKN016 TEMPO 3115/3121 0300 FG VV003
NOTAMshow/hide NOTAM
AWOS   TABLE

Информация о ВПП

ВПП Длина ВПП (м.) Покрытие Курс ВПП Частота ILS
10L3397Цементобетон96110.5
28R3397Цементобетон276111.3
10R3780Цементобетон96111.9
28L3780Цементобетон276108.9

Диспетчерские позиции

Позывной Наименование органа УВД Частота
ULLI_GNDПулково-Руление121.7
ULLI_TWRПулково-Вышка118.1
ULLI_APPПетербург-Подход119.3
ULLI_R_APPПулково-Круг120.3
ULLI_DELПулково-Деливери121.9
ULLIFM1Машина сопровождения121.7



Спутниковое изображение